createdAt,value
2022-08-03T00:01:34.584Z,101029.19
2022-08-03T00:04:01.830Z,101026.34
2022-08-03T00:06:28.622Z,101022.25
2022-08-03T00:08:55.412Z,101024.31
2022-08-03T00:11:22.250Z,101013.31
2022-08-03T00:13:49.047Z,101014.41
2022-08-03T00:16:15.846Z,101015.75
2022-08-03T00:18:42.636Z,101017.53
2022-08-03T00:21:09.450Z,101013.63
2022-08-03T00:23:52.321Z,101012.97
2022-08-03T00:26:19.762Z,101020.84
2022-08-03T00:28:46.559Z,101014.06
2022-08-03T00:31:13.856Z,101012.50
2022-08-03T00:33:59.061Z,101015.06
2022-08-03T00:36:26.636Z,101009.59
2022-08-03T00:38:53.635Z,101012.13
2022-08-03T00:41:20.512Z,101008.88
2022-08-03T00:43:47.673Z,101007.97
2022-08-03T00:46:19.030Z,101013.63
2022-08-03T00:48:48.052Z,101011.88
2022-08-03T00:51:14.860Z,101006.22
2022-08-03T00:53:41.692Z,101009.59
2022-08-03T00:56:08.481Z,101005.03
2022-08-03T00:58:35.321Z,101007.16
2022-08-03T01:01:02.412Z,101002.94
2022-08-03T01:03:29.824Z,101002.25
2022-08-03T01:05:56.618Z,101009.97
2022-08-03T01:08:23.779Z,101013.81
2022-08-03T01:10:50.588Z,101007.09
2022-08-03T01:14:01.290Z,101001.22
2022-08-03T01:16:04.242Z,101004.13
2022-08-03T01:18:31.073Z,101005.44
2022-08-03T01:20:58.050Z,101004.50
2022-08-03T01:23:29.036Z,101007.00
2022-08-03T01:25:56.362Z,100997.81
2022-08-03T01:28:23.502Z,101000.75
2022-08-03T01:30:50.429Z,100999.97
2022-08-03T01:33:17.231Z,101006.09
2022-08-03T01:35:44.043Z,100998.56
2022-08-03T01:38:10.971Z,101002.97
2022-08-03T01:40:37.818Z,100998.13
2022-08-03T01:43:04.642Z,100996.94
2022-08-03T01:45:34.252Z,101000.75
2022-08-03T01:48:01.196Z,100995.66
2022-08-03T01:50:28.011Z,100994.50
2022-08-03T01:52:54.855Z,100993.50
2022-08-03T01:55:21.687Z,100999.34
2022-08-03T01:58:05.428Z,101004.44
2022-08-03T02:00:33.510Z,101001.34
2022-08-03T02:03:00.474Z,100997.78
2022-08-03T02:05:27.260Z,101001.56
2022-08-03T02:07:54.081Z,101004.00
2022-08-03T02:10:34.649Z,101002.97
2022-08-03T02:13:02.499Z,101005.09
2022-08-03T02:15:29.320Z,101005.19
2022-08-03T02:17:56.146Z,101000.69
2022-08-03T02:20:22.963Z,100994.84
2022-08-03T02:22:49.780Z,100998.22
2022-08-03T02:25:16.584Z,100995.13
2022-08-03T02:27:44.094Z,100997.75
2022-08-03T02:30:11.057Z,100992.63
2022-08-03T02:32:37.870Z,100990.41
2022-08-03T02:35:04.725Z,100992.50
2022-08-03T02:37:31.517Z,100994.84
2022-08-03T02:39:58.326Z,100987.25
2022-08-03T02:42:25.170Z,100985.69
2022-08-03T02:44:52.018Z,100991.69
2022-08-03T02:47:20.834Z,100993.66
2022-08-03T02:49:51.525Z,100984.56
2022-08-03T02:52:19.105Z,100983.75
2022-08-03T02:54:45.994Z,100989.09
2022-08-03T02:57:12.820Z,100991.25
2022-08-03T02:59:39.604Z,100993.19
2022-08-03T03:02:06.410Z,100983.91
2022-08-03T03:04:33.586Z,100988.97
2022-08-03T03:07:00.394Z,100985.56
2022-08-03T03:09:29.169Z,100991.78
2022-08-03T03:12:07.363Z,100985.41
2022-08-03T03:14:34.283Z,100983.44
2022-08-03T03:17:01.109Z,100981.13
2022-08-03T03:19:27.942Z,100983.47
2022-08-03T03:21:54.741Z,100983.34
2022-08-03T03:24:21.552Z,100991.59
2022-08-03T03:26:48.704Z,100990.50
2022-08-03T03:29:15.573Z,100987.69
2022-08-03T03:31:42.443Z,100987.97
2022-08-03T03:34:09.277Z,100994.59
2022-08-03T03:36:37.466Z,100996.97
2022-08-03T03:39:15.048Z,100992.94
2022-08-03T03:41:42.888Z,100989.31
2022-08-03T03:44:09.766Z,100993.97
2022-08-03T03:46:36.698Z,100984.72
2022-08-03T03:49:03.592Z,100987.44
2022-08-03T03:51:30.489Z,100985.69
2022-08-03T03:53:57.339Z,100987.22
2022-08-03T03:56:24.214Z,100990.22
2022-08-03T03:58:51.125Z,100984.72
2022-08-03T04:01:18.110Z,100988.75
2022-08-03T04:03:44.957Z,100985.25
2022-08-03T04:06:30.607Z,100993.44
2022-08-03T04:09:00.169Z,100991.44
2022-08-03T04:11:30.131Z,100994.53
2022-08-03T04:14:01.939Z,100994.63
2022-08-03T04:16:29.048Z,101001.59
2022-08-03T04:18:55.904Z,100992.31
2022-08-03T04:21:23.498Z,100990.97
2022-08-03T04:23:50.300Z,100990.81
2022-08-03T04:26:17.115Z,100995.69
2022-08-03T04:28:44.790Z,100995.31
2022-08-03T04:31:11.604Z,100999.78
2022-08-03T04:33:38.814Z,101000.28
2022-08-03T04:36:05.660Z,101001.16
2022-08-03T04:38:32.487Z,101000.75
2022-08-03T04:40:59.363Z,101000.06
2022-08-03T04:43:26.163Z,101003.94
2022-08-03T04:45:53.017Z,100997.09
2022-08-03T04:48:20.054Z,100997.91
2022-08-03T04:50:46.862Z,101001.06
2022-08-03T04:53:13.680Z,101001.31
2022-08-03T04:55:40.931Z,101010.03
2022-08-03T04:58:07.783Z,100999.09
2022-08-03T05:00:34.581Z,101009.19
2022-08-03T05:03:01.474Z,101010.28
2022-08-03T05:05:37.879Z,101009.66
2022-08-03T05:08:15.121Z,101007.97
2022-08-03T05:10:41.936Z,101009.50
2022-08-03T05:13:12.847Z,101014.22
2022-08-03T05:15:43.176Z,101016.34
2022-08-03T05:18:13.932Z,101005.81
2022-08-03T05:20:41.225Z,101013.09
2022-08-03T05:23:08.035Z,101009.94
2022-08-03T05:25:34.924Z,101009.41
2022-08-03T05:28:01.836Z,101008.19
2022-08-03T05:30:33.396Z,101014.13
2022-08-03T05:33:01.141Z,101012.50
2022-08-03T05:36:02.768Z,101019.31
2022-08-03T05:38:24.003Z,101027.97
2022-08-03T05:40:57.503Z,101017.28
2022-08-03T05:43:42.608Z,101020.66
2022-08-03T05:46:11.612Z,101018.53
2022-08-03T05:48:39.694Z,101017.16
2022-08-03T05:51:07.791Z,101024.03
2022-08-03T05:53:34.675Z,101019.50
2022-08-03T05:56:03.553Z,101020.34
2022-08-03T05:58:41.647Z,101022.47
2022-08-03T06:01:08.554Z,101018.38
2022-08-03T06:03:35.416Z,101017.66
2022-08-03T06:06:02.312Z,101012.38
2022-08-03T06:08:29.191Z,101016.16
2022-08-03T06:10:56.110Z,101015.44
2022-08-03T06:13:22.969Z,101021.84
2022-08-03T06:15:49.777Z,101019.34
2022-08-03T06:18:16.684Z,101012.41
2022-08-03T06:20:43.488Z,101011.91
2022-08-03T06:23:15.920Z,101004.81
2022-08-03T06:25:42.959Z,101007.16
2022-08-03T06:28:19.061Z,101010.81
2022-08-03T06:30:50.529Z,101007.47
2022-08-03T06:33:17.348Z,101013.63
2022-08-03T06:35:44.728Z,101017.19
2022-08-03T06:38:12.963Z,101011.81
2022-08-03T06:40:40.102Z,101013.69
2022-08-03T06:43:10.725Z,101012.78
2022-08-03T06:45:39.515Z,101014.97
2022-08-03T06:48:06.352Z,101021.84
2022-08-03T06:50:33.169Z,101012.78
2022-08-03T06:53:00.339Z,101008.91
2022-08-03T06:55:27.157Z,101008.22
2022-08-03T06:57:53.988Z,101009.22
2022-08-03T07:00:20.820Z,101016.91
2022-08-03T07:02:47.631Z,101011.44
2022-08-03T07:05:14.461Z,101016.56
2022-08-03T07:07:41.289Z,101012.56
2022-08-03T07:10:08.126Z,101004.16
2022-08-03T07:12:34.926Z,101013.44
2022-08-03T07:15:03.182Z,101014.19
2022-08-03T07:17:30.419Z,101007.06
2022-08-03T07:19:57.215Z,101012.88
2022-08-03T07:22:24.004Z,101009.16
2022-08-03T07:24:50.812Z,101008.56
2022-08-03T07:27:17.613Z,101009.97
2022-08-03T07:29:44.440Z,101006.47
2022-08-03T07:32:11.264Z,101015.09
2022-08-03T07:34:38.049Z,101001.09
2022-08-03T07:37:04.853Z,101008.72
2022-08-03T07:39:31.694Z,101004.94
2022-08-03T07:41:58.535Z,101004.78
2022-08-03T07:44:25.364Z,100996.91
2022-08-03T07:46:52.182Z,101004.59
2022-08-03T07:49:19.069Z,101004.31
2022-08-03T07:51:45.916Z,101000.25
2022-08-03T07:54:12.725Z,101003.22
2022-08-03T07:56:39.678Z,101006.19
2022-08-03T07:59:06.519Z,101006.44
2022-08-03T08:01:36.770Z,101005.56
2022-08-03T08:04:03.648Z,101005.75
2022-08-03T08:06:32.588Z,101006.28
2022-08-03T08:09:01.649Z,101003.47
2022-08-03T08:11:28.448Z,100997.75
2022-08-03T08:13:55.253Z,101004.97
2022-08-03T08:16:22.087Z,101008.75
2022-08-03T08:18:48.918Z,100997.53
2022-08-03T08:21:15.727Z,100996.00
2022-08-03T08:23:46.238Z,101004.09
2022-08-03T08:26:22.461Z,100992.78
2022-08-03T08:28:49.432Z,100995.22
2022-08-03T08:31:16.373Z,100989.38
2022-08-03T08:34:03.147Z,100991.50
2022-08-03T08:36:30.122Z,100995.25
2022-08-03T08:38:56.919Z,100994.16
2022-08-03T08:41:23.743Z,100990.00
2022-08-03T08:44:00.197Z,100989.28
2022-08-03T08:46:27.307Z,100995.63
2022-08-03T08:48:54.312Z,100992.09
2022-08-03T08:51:21.323Z,100995.28
2022-08-03T08:53:48.376Z,100989.13
2022-08-03T08:56:16.105Z,100985.97
2022-08-03T08:58:43.118Z,100996.56
2022-08-03T09:01:10.183Z,100993.47
2022-08-03T09:03:37.118Z,100984.66
2022-08-03T09:06:03.954Z,100995.88
2022-08-03T09:08:30.775Z,100996.13
2022-08-03T09:10:57.637Z,100988.50
2022-08-03T09:13:24.476Z,100976.16
2022-08-03T09:15:53.334Z,100988.75
2022-08-03T09:18:27.910Z,100983.44
2022-08-03T09:21:06.793Z,100985.06
2022-08-03T09:24:01.441Z,100969.75
2022-08-03T09:26:29.429Z,100975.47
2022-08-03T09:29:04.630Z,100979.38
2022-08-03T09:31:33.874Z,100966.84
2022-08-03T09:34:01.253Z,100963.63
2022-08-03T09:36:28.070Z,100961.13
2022-08-03T09:38:54.869Z,100963.16
2022-08-03T09:41:21.672Z,100964.69
2022-08-03T09:43:48.625Z,100960.91
2022-08-03T09:46:15.501Z,100958.66
2022-08-03T09:48:42.465Z,100963.53
2022-08-03T09:51:13.479Z,100955.00
2022-08-03T09:54:01.711Z,100958.91
2022-08-03T09:56:33.819Z,100955.59
2022-08-03T09:59:03.414Z,100954.56
2022-08-03T10:01:30.267Z,100951.63
2022-08-03T10:04:03.821Z,100951.56
2022-08-03T10:06:31.661Z,100946.69
2022-08-03T10:08:58.500Z,100943.97
2022-08-03T10:11:25.309Z,100945.47
2022-08-03T10:13:52.289Z,100942.78
2022-08-03T10:16:27.996Z,100946.34
2022-08-03T10:18:56.510Z,100947.31
2022-08-03T10:21:23.325Z,100944.69
2022-08-03T10:23:50.142Z,100945.66
2022-08-03T10:26:17.345Z,100938.81
2022-08-03T10:28:45.455Z,100933.44
2022-08-03T10:31:12.477Z,100929.66
2022-08-03T10:33:52.044Z,100925.06
2022-08-03T10:36:19.874Z,100926.31
2022-08-03T10:38:46.969Z,100917.97
2022-08-03T10:41:13.753Z,100927.06
2022-08-03T10:43:40.560Z,100919.19
2022-08-03T10:46:07.391Z,100925.22
2022-08-03T10:48:35.428Z,100916.81
2022-08-03T10:51:02.310Z,100914.09
2022-08-03T10:53:29.109Z,100921.34
2022-08-03T10:56:15.141Z,100910.19
2022-08-03T10:58:57.614Z,100910.31
2022-08-03T11:01:24.933Z,100916.72
2022-08-03T11:04:16.630Z,100910.69
2022-08-03T11:06:43.743Z,100910.50
2022-08-03T11:09:10.543Z,100906.72
2022-08-03T11:11:37.389Z,100906.72
2022-08-03T11:14:04.613Z,100903.94
2022-08-03T11:16:31.430Z,100905.28
2022-08-03T11:18:58.374Z,100902.66
2022-08-03T11:21:30.095Z,100898.06
2022-08-03T11:24:04.172Z,100896.34
2022-08-03T11:26:33.181Z,100894.88
2022-08-03T11:29:00.065Z,100895.63
2022-08-03T11:31:48.725Z,100893.66
2022-08-03T11:34:14.510Z,100894.03
2022-08-03T11:36:41.476Z,100891.09
2022-08-03T11:39:08.308Z,100894.47
2022-08-03T11:41:43.293Z,100894.88
2022-08-03T11:44:11.965Z,100892.75
2022-08-03T11:46:38.788Z,100892.00
2022-08-03T11:49:09.932Z,100890.84
2022-08-03T11:51:38.673Z,100893.97
2022-08-03T11:54:05.621Z,100894.47
2022-08-03T11:56:32.458Z,100898.28
2022-08-03T11:59:20.440Z,100893.44
2022-08-03T12:01:48.337Z,100887.28
2022-08-03T12:04:16.169Z,100887.09
2022-08-03T12:06:55.279Z,100895.53
2022-08-03T12:09:22.082Z,100885.59
2022-08-03T12:11:50.970Z,100883.94
2022-08-03T12:14:49.050Z,100882.66
2022-08-03T12:17:17.118Z,100881.31
2022-08-03T12:19:44.345Z,100883.56
2022-08-03T12:22:11.137Z,100875.34
2022-08-03T12:24:37.938Z,100877.66
2022-08-03T12:27:04.750Z,100876.34
2022-08-03T12:29:31.569Z,100880.13
2022-08-03T12:31:58.385Z,100874.41
2022-08-03T12:34:25.280Z,100866.88
2022-08-03T12:36:58.686Z,100857.38
2022-08-03T12:39:26.244Z,100852.00
2022-08-03T12:41:53.037Z,100856.00
2022-08-03T12:44:19.837Z,100862.00
2022-08-03T12:46:48.154Z,100864.97
2022-08-03T12:49:15.421Z,100865.81
2022-08-03T12:51:42.580Z,100862.53
2022-08-03T12:54:09.397Z,100854.78
2022-08-03T12:56:36.301Z,100855.13
2022-08-03T12:59:03.291Z,100852.69
2022-08-03T13:01:30.155Z,100852.72
2022-08-03T13:03:59.174Z,100855.44
2022-08-03T13:06:28.121Z,100860.72
2022-08-03T13:08:55.141Z,100856.56
2022-08-03T13:11:21.970Z,100846.28
2022-08-03T13:13:48.865Z,100848.03
2022-08-03T13:16:19.150Z,100848.06
2022-08-03T13:18:49.262Z,100845.56
2022-08-03T13:21:16.144Z,100841.97
2022-08-03T13:23:43.022Z,100848.50
2022-08-03T13:26:09.860Z,100842.06
2022-08-03T13:28:36.663Z,100841.41
2022-08-03T13:31:03.509Z,100840.06
2022-08-03T13:33:30.314Z,100840.06
2022-08-03T13:35:57.774Z,100845.13
2022-08-03T13:38:27.200Z,100840.47
2022-08-03T13:40:55.353Z,100833.09
2022-08-03T13:43:22.774Z,100836.63
2022-08-03T13:45:52.517Z,100829.19
2022-08-03T13:48:37.277Z,100831.16
2022-08-03T13:51:05.651Z,100828.69
2022-08-03T13:53:49.107Z,100829.53
2022-08-03T13:56:15.937Z,100825.28
2022-08-03T13:58:42.778Z,100822.09
2022-08-03T14:01:09.679Z,100818.91
2022-08-03T14:03:36.512Z,100821.66
2022-08-03T14:06:03.406Z,100822.13
2022-08-03T14:08:30.201Z,100822.78
2022-08-03T14:10:57.089Z,100816.03
2022-08-03T14:13:24.937Z,100813.53
2022-08-03T14:15:51.880Z,100813.31
2022-08-03T14:18:27.924Z,100810.97
2022-08-03T14:21:04.960Z,100813.41
2022-08-03T14:23:32.680Z,100807.63
2022-08-03T14:25:59.705Z,100813.72
2022-08-03T14:28:26.573Z,100809.03
2022-08-03T14:30:53.697Z,100805.03
2022-08-03T14:33:20.533Z,100807.53
2022-08-03T14:35:47.355Z,100796.25
2022-08-03T14:38:14.285Z,100799.63
2022-08-03T14:40:41.419Z,100802.13
2022-08-03T14:43:08.234Z,100799.78
2022-08-03T14:45:35.061Z,100798.19
2022-08-03T14:50:34.334Z,100793.13
2022-08-03T14:50:51.699Z,100787.81
2022-08-03T14:53:18.701Z,100792.00
2022-08-03T14:55:50.061Z,100794.34
2022-08-03T14:58:19.487Z,100799.59
2022-08-03T15:00:48.158Z,100796.19
2022-08-03T15:03:15.928Z,100789.72
2022-08-03T15:05:43.958Z,100784.44
2022-08-03T15:08:10.747Z,100790.94
2022-08-03T15:10:40.357Z,100783.78
2022-08-03T15:13:11.484Z,100790.09
2022-08-03T15:15:38.289Z,100783.97
2022-08-03T15:18:05.110Z,100781.44
2022-08-03T15:20:43.282Z,100776.25
2022-08-03T15:23:11.201Z,100768.13
2022-08-03T15:26:28.246Z,100769.53
2022-08-03T15:28:24.934Z,100776.63
2022-08-03T15:30:51.749Z,100771.31
2022-08-03T15:33:18.595Z,100778.66
2022-08-03T15:35:47.236Z,100772.31
2022-08-03T15:38:14.192Z,100767.03
2022-08-03T15:40:41.040Z,100775.03
2022-08-03T15:43:07.937Z,100776.84
2022-08-03T15:45:36.348Z,100770.50
2022-08-03T15:48:03.660Z,100766.25
2022-08-03T15:50:30.452Z,100763.72
2022-08-03T15:52:57.282Z,100763.22
2022-08-03T15:55:24.113Z,100761.47
2022-08-03T15:59:09.239Z,100751.34
2022-08-03T16:00:37.755Z,100764.44
2022-08-03T16:03:04.614Z,100757.63
2022-08-03T16:05:31.412Z,100764.75
2022-08-03T16:08:02.619Z,100752.34
2022-08-03T16:10:30.563Z,100751.47
2022-08-03T16:12:58.943Z,100749.88
2022-08-03T16:15:25.801Z,100749.41
2022-08-03T16:17:52.883Z,100759.97
2022-08-03T16:20:31.403Z,100754.03
2022-08-03T16:23:01.546Z,100753.22
2022-08-03T16:25:35.976Z,100748.09
2022-08-03T16:28:07.771Z,100749.13
2022-08-03T16:30:39.775Z,100736.50
2022-08-03T16:33:06.594Z,100746.06
2022-08-03T16:35:33.399Z,100750.69
2022-08-03T16:38:00.208Z,100750.22
2022-08-03T16:40:27.088Z,100753.41
2022-08-03T16:42:53.908Z,100741.38
2022-08-03T16:45:20.715Z,100748.72
2022-08-03T16:47:47.522Z,100749.84
2022-08-03T16:50:28.141Z,100751.16
2022-08-03T16:52:55.101Z,100752.34
2022-08-03T16:55:43.408Z,100748.13
2022-08-03T16:58:08.707Z,100745.19
2022-08-03T17:00:41.863Z,100751.34
2022-08-03T17:03:18.857Z,100751.44
2022-08-03T17:05:49.555Z,100756.22
2022-08-03T17:08:26.064Z,100755.56
2022-08-03T17:10:53.884Z,100761.19
2022-08-03T17:13:21.839Z,100754.06
2022-08-03T17:16:01.573Z,100747.88
2022-08-03T17:18:29.660Z,100745.69
2022-08-03T17:20:57.037Z,100759.53
2022-08-03T17:23:34.431Z,100754.09
2022-08-03T17:26:04.811Z,100762.69
2022-08-03T17:28:48.216Z,100757.38
2022-08-03T17:31:22.534Z,100756.53
2022-08-03T17:33:57.315Z,100755.13
2022-08-03T17:36:37.018Z,100759.06
2022-08-03T17:39:11.207Z,100759.16
2022-08-03T17:41:39.655Z,100763.34
2022-08-03T17:44:33.193Z,100761.63
2022-08-03T17:47:03.523Z,100756.25
2022-08-03T17:49:31.181Z,100759.28
2022-08-03T17:51:58.150Z,100758.94
2022-08-03T17:54:27.162Z,100765.66
2022-08-03T17:56:55.700Z,100767.16
2022-08-03T17:59:50.766Z,100764.59
2022-08-03T18:02:30.680Z,100758.19
2022-08-03T18:07:47.278Z,100751.09
2022-08-03T18:10:15.561Z,100760.66
2022-08-03T18:12:42.816Z,100766.31
2022-08-03T18:15:21.456Z,100771.75
2022-08-03T18:17:55.093Z,100769.84
2022-08-03T18:20:33.189Z,100763.81
2022-08-03T18:23:05.777Z,100767.16
2022-08-03T18:28:19.604Z,100775.81
2022-08-03T18:30:54.676Z,100778.31
2022-08-03T18:34:16.228Z,100777.66
2022-08-03T18:36:31.842Z,100767.88
2022-08-03T18:38:59.177Z,100776.91
2022-08-03T18:41:33.755Z,100779.00
2022-08-03T18:44:06.988Z,100776.59
2022-08-03T18:46:34.703Z,100778.09
2022-08-03T18:51:51.207Z,100781.19
2022-08-03T18:54:45.514Z,100776.00
2022-08-03T18:57:08.747Z,100788.00
2022-08-03T18:59:36.582Z,100782.72
2022-08-03T19:02:04.854Z,100791.19
2022-08-03T19:04:32.181Z,100797.06
2022-08-03T19:06:58.985Z,100803.34
2022-08-03T19:09:27.864Z,100798.88
2022-08-03T19:12:12.429Z,100787.84
2022-08-03T19:14:42.442Z,100794.16
2022-08-03T19:17:09.356Z,100800.69
2022-08-03T19:19:43.337Z,100797.50
2022-08-03T19:22:11.397Z,100805.06
2022-08-03T19:24:38.310Z,100794.03
2022-08-03T19:27:05.146Z,100798.13
2022-08-03T19:29:58.464Z,100798.72
2022-08-03T19:32:24.556Z,100806.78
2022-08-03T19:34:51.498Z,100803.59
2022-08-03T19:37:19.021Z,100805.47
2022-08-03T19:39:56.407Z,100808.91
2022-08-03T19:42:24.032Z,100805.63
2022-08-03T19:44:55.868Z,100799.03
2022-08-03T19:47:22.674Z,100800.59
2022-08-03T19:50:00.023Z,100800.03
2022-08-03T19:52:33.953Z,100804.84
2022-08-03T19:55:00.812Z,100803.78
2022-08-03T19:57:27.601Z,100799.97
2022-08-03T19:59:54.407Z,100799.47
2022-08-03T20:02:26.654Z,100797.63
2022-08-03T20:04:54.420Z,100798.34
2022-08-03T20:07:22.898Z,100808.44
2022-08-03T20:09:54.396Z,100801.47
2022-08-03T20:12:27.319Z,100804.19
2022-08-03T20:14:55.538Z,100796.81
2022-08-03T20:17:23.289Z,100803.03
2022-08-03T20:20:10.149Z,100811.81
2022-08-03T20:22:37.001Z,100814.34
2022-08-03T20:25:06.004Z,100820.22
2022-08-03T20:27:32.819Z,100813.09
2022-08-03T20:30:20.632Z,100814.75
2022-08-03T20:32:54.439Z,100817.84
2022-08-03T20:35:21.308Z,100814.06
2022-08-03T20:37:48.105Z,100817.72
2022-08-03T20:40:14.964Z,100820.25
2022-08-03T20:42:41.764Z,100828.22
2022-08-03T20:45:13.966Z,100822.19
2022-08-03T20:47:50.533Z,100819.28
2022-08-03T20:50:17.924Z,100814.69
2022-08-03T20:52:49.849Z,100816.84
2022-08-03T20:55:18.566Z,100827.22
2022-08-03T20:57:49.063Z,100828.88
2022-08-03T21:00:17.724Z,100822.78
2022-08-03T21:02:44.652Z,100823.59
2022-08-03T21:05:11.524Z,100826.91
2022-08-03T21:08:04.021Z,100828.91
2022-08-03T21:10:28.515Z,100824.69
2022-08-03T21:13:04.350Z,100766.72
2022-08-03T21:13:04.565Z,100761.75
2022-08-03T21:13:09.981Z,100782.28
2022-08-03T21:13:14.174Z,100828.25
2022-08-03T21:16:02.539Z,100829.94
2022-08-03T21:18:29.144Z,100821.47
2022-08-03T21:20:56.084Z,100820.09
2022-08-03T21:23:47.586Z,100822.59
2022-08-03T21:26:09.803Z,100821.50
2022-08-03T21:28:36.591Z,100825.34
2022-08-03T21:31:03.399Z,100824.03
2022-08-03T21:33:30.708Z,100814.72
2022-08-03T21:35:57.510Z,100810.94
2022-08-03T21:38:29.672Z,100798.50
2022-08-03T21:40:57.249Z,100810.44
2022-08-03T21:43:24.052Z,100815.56
2022-08-03T21:45:50.890Z,100811.00
2022-08-03T21:48:17.753Z,100822.38
2022-08-03T21:50:44.556Z,100819.59
2022-08-03T21:53:11.362Z,100804.97
2022-08-03T21:55:38.615Z,100812.59
2022-08-03T21:58:05.896Z,100809.00
2022-08-03T22:00:32.921Z,100809.81
2022-08-03T22:03:00.504Z,100821.97
2022-08-03T22:05:43.816Z,100810.13
2022-08-03T22:08:11.041Z,100822.34
2022-08-03T22:10:37.870Z,100817.63
2022-08-03T22:13:04.661Z,100821.97
2022-08-03T22:15:31.486Z,100825.28
2022-08-03T22:17:58.385Z,100825.28
2022-08-03T22:20:25.223Z,100824.50
2022-08-03T22:22:55.344Z,100825.94
2022-08-03T22:25:23.204Z,100832.69
2022-08-03T22:27:50.806Z,100822.59
2022-08-03T22:30:17.609Z,100826.56
2022-08-03T22:32:44.456Z,100822.34
2022-08-03T22:35:11.357Z,100825.09
2022-08-03T22:37:38.206Z,100821.09
2022-08-03T22:40:05.046Z,100823.19
2022-08-03T22:42:34.958Z,100824.88
2022-08-03T22:45:01.802Z,100823.41
2022-08-03T22:47:28.636Z,100816.09
2022-08-03T22:50:31.627Z,100818.50
2022-08-03T22:52:43.708Z,100821.06
2022-08-03T22:55:10.512Z,100830.19
2022-08-03T22:57:37.326Z,100824.47
2022-08-03T23:00:04.147Z,100829.31
2022-08-03T23:02:30.950Z,100823.81
2022-08-03T23:04:57.779Z,100815.78
2022-08-03T23:07:24.610Z,100825.00
2022-08-03T23:09:51.400Z,100822.81
2022-08-03T23:12:18.217Z,100820.03
2022-08-03T23:14:45.249Z,100824.03
2022-08-03T23:17:12.176Z,100817.28
2022-08-03T23:19:42.410Z,100816.50
2022-08-03T23:22:29.563Z,100817.63
2022-08-03T23:24:57.301Z,100820.59
2022-08-03T23:27:24.116Z,100822.78
2022-08-03T23:29:51.038Z,100825.31
2022-08-03T23:32:17.828Z,100825.28
2022-08-03T23:35:03.320Z,100822.28
2022-08-03T23:37:30.116Z,100822.34
2022-08-03T23:39:56.909Z,100822.41
2022-08-03T23:42:23.731Z,100827.38
2022-08-03T23:44:50.552Z,100825.75
2022-08-03T23:47:17.353Z,100829.94
2022-08-03T23:49:44.177Z,100826.34
2022-08-03T23:52:11.033Z,100821.50
2022-08-03T23:54:37.870Z,100821.56
2022-08-03T23:57:04.698Z,100820.31
2022-08-03T23:59:31.528Z,100826.53
